createdAt,value
2023-04-28T00:00:07.704Z,17.90
2023-04-28T00:02:34.685Z,17.33
2023-04-28T00:05:01.731Z,17.07
2023-04-28T00:07:28.688Z,18.00
2023-04-28T00:09:57.041Z,17.27
2023-04-28T00:12:24.190Z,17.47
2023-04-28T00:14:51.215Z,17.50
2023-04-28T00:17:18.070Z,17.07
2023-04-28T00:19:45.266Z,17.10
2023-04-28T00:22:12.263Z,18.40
2023-04-28T00:24:39.112Z,16.23
2023-04-28T00:27:06.054Z,17.60
2023-04-28T00:29:32.939Z,17.90
2023-04-28T00:31:59.888Z,18.20
2023-04-28T00:34:26.806Z,17.47
2023-04-28T00:36:53.730Z,17.83
2023-04-28T00:39:22.921Z,18.27
2023-04-28T00:41:49.793Z,18.53
2023-04-28T00:44:16.931Z,18.27
2023-04-28T00:46:43.950Z,18.43
2023-04-28T00:49:11.155Z,17.47
2023-04-28T00:51:38.002Z,18.23
2023-04-28T00:54:06.278Z,17.77
2023-04-28T00:56:33.746Z,18.27
2023-04-28T00:59:00.728Z,17.43
2023-04-28T01:01:27.655Z,19.70
2023-04-28T01:03:54.719Z,18.90
2023-04-28T01:06:22.650Z,17.90
2023-04-28T01:08:51.016Z,16.90
2023-04-28T01:11:17.953Z,18.47
2023-04-28T01:13:44.854Z,17.77
2023-04-28T01:16:11.792Z,18.83
2023-04-28T01:18:39.392Z,19.07
2023-04-28T01:21:06.267Z,19.33
2023-04-28T01:23:33.103Z,18.63
2023-04-28T01:25:59.989Z,19.30
2023-04-28T01:28:26.919Z,19.17
2023-04-28T01:30:53.824Z,20.00
2023-04-28T01:33:20.668Z,18.90
2023-04-28T01:35:47.556Z,19.30
2023-04-28T01:38:14.406Z,19.80
2023-04-28T01:40:41.311Z,19.03
2023-04-28T01:43:08.187Z,20.37
2023-04-28T01:45:35.162Z,20.50
2023-04-28T01:48:02.063Z,19.93
2023-04-28T01:50:29.012Z,20.57
2023-04-28T01:52:55.904Z,18.87
2023-04-28T01:55:22.731Z,21.03
2023-04-28T01:57:50.180Z,21.10
2023-04-28T02:00:17.398Z,21.13
2023-04-28T02:02:44.327Z,20.27
2023-04-28T02:05:12.201Z,20.87
2023-04-28T02:07:39.083Z,19.80
2023-04-28T02:10:06.758Z,21.70
2023-04-28T02:12:34.024Z,21.30
2023-04-28T02:15:01.148Z,21.43
2023-04-28T02:17:30.712Z,21.27
2023-04-28T02:19:57.720Z,20.53
2023-04-28T02:22:24.902Z,19.97
2023-04-28T02:24:51.753Z,21.10
2023-04-28T02:27:18.712Z,21.50
2023-04-28T02:29:45.577Z,20.50
2023-04-28T02:32:12.437Z,21.70
2023-04-28T02:34:39.321Z,22.03
2023-04-28T02:37:06.223Z,20.47
2023-04-28T02:39:33.441Z,20.40
2023-04-28T02:42:00.534Z,20.97
2023-04-28T02:44:27.436Z,21.97
2023-04-28T02:46:54.389Z,22.73
2023-04-28T02:49:21.500Z,22.60
2023-04-28T02:51:48.366Z,22.87
2023-04-28T02:54:15.575Z,21.63
2023-04-28T02:56:42.850Z,23.13
2023-04-28T02:59:09.689Z,23.13
2023-04-28T03:01:36.592Z,23.50
2023-04-28T03:04:03.804Z,22.37
2023-04-28T03:06:31.802Z,22.43
2023-04-28T03:08:58.665Z,22.23
2023-04-28T03:11:25.726Z,23.13
2023-04-28T03:13:52.555Z,23.03
2023-04-28T03:16:19.459Z,24.03
2023-04-28T03:18:46.376Z,22.50
2023-04-28T03:21:13.277Z,22.03
2023-04-28T03:23:40.135Z,23.77
2023-04-28T03:26:07.151Z,23.70
2023-04-28T03:28:34.018Z,23.83
2023-04-28T03:31:01.010Z,23.30
2023-04-28T03:33:27.897Z,24.27
2023-04-28T03:35:54.888Z,24.20
2023-04-28T03:38:22.643Z,25.37
2023-04-28T03:40:49.582Z,24.43
2023-04-28T03:43:17.232Z,26.13
2023-04-28T03:45:44.128Z,25.50
2023-04-28T03:48:11.147Z,25.97
2023-04-28T03:50:38.115Z,27.40
2023-04-28T03:53:05.133Z,28.23
2023-04-28T03:55:32.023Z,29.57
2023-04-28T03:57:58.875Z,28.40
2023-04-28T04:00:25.988Z,30.47
2023-04-28T04:02:53.260Z,30.37
2023-04-28T04:05:20.406Z,30.70
2023-04-28T04:07:47.533Z,30.87
2023-04-28T04:10:14.430Z,32.77
2023-04-28T04:12:41.331Z,30.53
2023-04-28T04:15:08.915Z,33.40
2023-04-28T04:17:35.822Z,32.57
2023-04-28T04:20:02.694Z,32.00
2023-04-28T04:22:29.674Z,32.77
2023-04-28T04:24:56.688Z,34.03
2023-04-28T04:27:23.592Z,36.50
2023-04-28T04:29:50.587Z,34.80
2023-04-28T04:32:17.483Z,35.13
2023-04-28T04:34:44.992Z,36.23
2023-04-28T04:37:11.862Z,35.53
2023-04-28T04:39:38.724Z,37.10
2023-04-28T04:42:22.632Z,37.60
2023-04-28T04:44:50.618Z,36.03
2023-04-28T04:47:17.538Z,36.30
2023-04-28T04:49:44.454Z,37.57
2023-04-28T04:52:11.344Z,36.63
2023-04-28T04:54:38.276Z,36.70
2023-04-28T04:57:07.098Z,40.20
2023-04-28T04:59:33.936Z,40.47
2023-04-28T05:02:00.951Z,37.40
2023-04-28T05:04:28.387Z,40.80
2023-04-28T05:06:55.576Z,39.67
2023-04-28T05:09:23.417Z,40.83
2023-04-28T05:11:50.510Z,40.10
2023-04-28T05:14:18.012Z,41.53
2023-04-28T05:16:45.242Z,41.50
2023-04-28T05:19:12.123Z,41.20
2023-04-28T05:21:38.962Z,42.13
2023-04-28T05:24:06.293Z,42.03
2023-04-28T05:26:33.099Z,42.77
2023-04-28T05:29:00.021Z,41.87
2023-04-28T05:31:26.923Z,41.53
2023-04-28T05:33:53.835Z,41.77
2023-04-28T05:36:21.079Z,46.00
2023-04-28T05:38:47.985Z,46.63
2023-04-28T05:41:14.870Z,43.63
2023-04-28T05:43:41.727Z,44.73
2023-04-28T05:46:18.240Z,42.83
2023-04-28T05:48:49.154Z,41.37
2023-04-28T05:51:16.012Z,44.83
2023-04-28T05:53:44.083Z,44.07
2023-04-28T05:56:10.969Z,42.63
2023-04-28T05:58:38.568Z,42.93
2023-04-28T06:01:06.525Z,42.63
2023-04-28T06:03:33.754Z,42.17
2023-04-28T06:06:00.921Z,40.07
2023-04-28T06:08:27.811Z,41.10
2023-04-28T06:10:54.720Z,40.20
2023-04-28T06:13:21.795Z,37.70
2023-04-28T06:15:48.648Z,30.90
2023-04-28T06:18:16.503Z,30.07
2023-04-28T06:20:43.346Z,28.00
2023-04-28T06:23:11.231Z,25.73
2023-04-28T06:25:38.338Z,23.50
2023-04-28T06:28:06.457Z,22.43
2023-04-28T06:30:33.404Z,21.10
2023-04-28T06:33:00.503Z,21.00
2023-04-28T06:35:28.106Z,19.27
2023-04-28T06:37:54.948Z,17.33
2023-04-28T06:40:21.941Z,15.50
2023-04-28T06:42:49.021Z,16.57
2023-04-28T06:45:16.069Z,15.27
2023-04-28T06:47:43.417Z,15.40
2023-04-28T06:50:11.109Z,13.50
2023-04-28T06:52:41.112Z,11.97
2023-04-28T06:55:09.655Z,11.87
2023-04-28T06:57:37.881Z,11.77
2023-04-28T07:00:05.375Z,8.57
2023-04-28T07:02:32.535Z,9.77
2023-04-28T07:04:59.516Z,9.83
2023-04-28T07:07:27.405Z,8.70
2023-04-28T07:09:54.365Z,8.40
2023-04-28T07:12:21.894Z,6.87
2023-04-28T07:14:49.042Z,5.63
2023-04-28T07:17:16.194Z,4.37
2023-04-28T07:19:43.126Z,4.30
2023-04-28T07:22:10.031Z,4.73
2023-04-28T07:24:37.497Z,3.83
2023-04-28T07:27:04.487Z,2.97
2023-04-28T07:29:34.267Z,3.30
2023-04-28T07:32:06.863Z,2.47
2023-04-28T07:34:35.920Z,4.13
2023-04-28T07:37:03.607Z,3.80
2023-04-28T07:39:36.837Z,3.70
2023-04-28T07:42:03.986Z,3.60
2023-04-28T07:44:32.768Z,3.57
2023-04-28T07:47:00.208Z,3.27
2023-04-28T07:49:30.252Z,2.50
2023-04-28T07:51:57.332Z,2.30
2023-04-28T07:54:24.673Z,2.33
2023-04-28T07:56:51.738Z,1.47
2023-04-28T07:59:19.865Z,1.60
2023-04-28T08:01:46.810Z,1.73
2023-04-28T08:04:14.109Z,1.30
2023-04-28T08:06:41.717Z,1.50
2023-04-28T08:09:08.763Z,3.37
2023-04-28T08:11:35.682Z,2.60
2023-04-28T08:14:03.512Z,3.07
2023-04-28T08:16:31.015Z,3.03
2023-04-28T08:18:58.341Z,3.50
2023-04-28T08:21:25.651Z,2.90
2023-04-28T08:23:52.494Z,2.17
2023-04-28T08:26:19.388Z,3.47
2023-04-28T08:28:46.260Z,5.73
2023-04-28T08:31:14.184Z,7.17
2023-04-28T08:33:44.528Z,6.83
2023-04-28T08:36:15.143Z,6.20
2023-04-28T08:38:42.228Z,5.83
2023-04-28T08:41:09.216Z,5.03
2023-04-28T08:43:36.581Z,3.80
2023-04-28T08:46:06.537Z,3.50
2023-04-28T08:48:40.285Z,3.10
2023-04-28T08:51:07.428Z,3.20
2023-04-28T08:53:57.268Z,3.23
2023-04-28T08:56:25.146Z,3.13
2023-04-28T08:58:52.290Z,2.93
2023-04-28T09:01:19.234Z,3.50
2023-04-28T09:03:49.273Z,3.20
2023-04-28T09:06:16.419Z,3.33
2023-04-28T09:08:43.272Z,3.63
2023-04-28T09:11:11.270Z,3.50
2023-04-28T09:13:40.170Z,3.93
2023-04-28T09:16:07.406Z,3.47
2023-04-28T09:18:34.429Z,2.80
2023-04-28T09:21:05.514Z,2.50
2023-04-28T09:23:33.654Z,3.57
2023-04-28T09:26:04.660Z,3.30
2023-04-28T09:28:35.160Z,3.00
2023-04-28T09:31:03.949Z,3.60
2023-04-28T09:33:30.927Z,3.80
2023-04-28T09:35:57.836Z,3.17
2023-04-28T09:38:25.326Z,3.10
2023-04-28T09:40:59.741Z,2.70
2023-04-28T09:43:36.298Z,1.90
2023-04-28T09:46:04.498Z,1.83
2023-04-28T09:48:38.154Z,2.13
2023-04-28T09:51:07.820Z,1.50
2023-04-28T09:53:34.781Z,1.60
2023-04-28T09:56:03.532Z,1.67
2023-04-28T09:58:32.280Z,1.90
2023-04-28T10:01:00.676Z,2.40
2023-04-28T10:03:29.807Z,2.03
2023-04-28T10:05:58.458Z,1.97
2023-04-28T10:08:27.194Z,2.47
2023-04-28T10:10:54.869Z,2.03
2023-04-28T10:13:22.849Z,2.53
2023-04-28T10:15:55.693Z,2.17
2023-04-28T10:18:24.515Z,2.17
2023-04-28T10:20:58.251Z,2.23
2023-04-28T10:23:50.238Z,2.13
2023-04-28T10:26:19.873Z,2.78
2023-04-28T10:28:48.410Z,3.00
2023-04-28T10:31:16.652Z,2.97
2023-04-28T10:33:43.940Z,2.80
2023-04-28T10:36:11.137Z,2.80
2023-04-28T10:39:16.928Z,3.28
2023-04-28T10:41:44.969Z,3.37
2023-04-28T10:44:30.589Z,3.35
2023-04-28T10:47:10.092Z,3.28
2023-04-28T10:50:04.194Z,2.90
2023-04-28T10:52:40.872Z,3.67
2023-04-28T10:58:16.585Z,3.53
2023-04-28T11:00:53.604Z,3.40
2023-04-28T11:03:54.212Z,3.25
2023-04-28T11:09:04.290Z,3.22
2023-04-28T11:11:32.786Z,4.68
2023-04-28T11:14:22.679Z,4.97
2023-04-28T11:16:59.695Z,4.80
2023-04-28T11:21:59.193Z,4.45
2023-04-28T11:24:27.352Z,4.15
2023-04-28T11:26:54.312Z,2.20
2023-04-28T11:29:43.524Z,2.15
2023-04-28T11:32:10.916Z,2.92
2023-04-28T11:34:38.053Z,1.73
2023-04-28T11:37:07.245Z,1.92
2023-04-28T11:39:34.428Z,2.08
2023-04-28T11:42:10.136Z,5.03
2023-04-28T11:44:37.060Z,7.45
2023-04-28T11:47:04.658Z,7.82
2023-04-28T11:49:47.726Z,7.07
2023-04-28T11:52:14.657Z,7.22
2023-04-28T11:54:44.285Z,8.63
2023-04-28T11:57:21.618Z,5.72
2023-04-28T11:59:49.715Z,5.03
2023-04-28T12:02:19.179Z,4.75
2023-04-28T12:04:46.145Z,5.85
2023-04-28T12:07:19.854Z,4.63
2023-04-28T12:10:10.572Z,4.68
2023-04-28T12:15:08.852Z,6.13
2023-04-28T12:17:39.786Z,5.55
2023-04-28T12:20:08.617Z,5.30
2023-04-28T12:22:53.678Z,5.22
2023-04-28T12:25:21.692Z,4.43
2023-04-28T12:28:08.488Z,3.90
2023-04-28T12:30:42.152Z,4.57
2023-04-28T12:33:25.352Z,4.05
2023-04-28T12:35:55.186Z,3.80
2023-04-28T12:38:25.855Z,3.83
2023-04-28T12:40:53.932Z,4.30
2023-04-28T12:43:23.271Z,3.58
2023-04-28T12:45:51.077Z,3.92
2023-04-28T12:48:18.072Z,3.00
2023-04-28T12:50:45.833Z,3.63
2023-04-28T12:53:12.887Z,3.05
2023-04-28T12:55:40.867Z,3.47
2023-04-28T12:58:09.824Z,3.47
2023-04-28T13:00:37.699Z,3.20
2023-04-28T13:03:04.688Z,3.92
2023-04-28T13:05:32.669Z,4.15
2023-04-28T13:07:59.728Z,2.60
2023-04-28T13:10:26.763Z,3.10
2023-04-28T13:12:53.585Z,2.60
2023-04-28T13:15:20.679Z,2.35
2023-04-28T13:17:49.209Z,2.03
2023-04-28T13:20:18.175Z,2.08
2023-04-28T13:22:45.289Z,2.50
2023-04-28T13:25:12.126Z,2.28
2023-04-28T13:27:43.307Z,2.15
2023-04-28T13:30:11.457Z,2.17
2023-04-28T13:32:38.323Z,3.90
2023-04-28T13:35:05.711Z,4.82
2023-04-28T13:37:33.185Z,5.10
2023-04-28T13:40:04.349Z,6.68
2023-04-28T13:42:31.420Z,5.13
2023-04-28T13:44:59.558Z,6.78
2023-04-28T13:47:26.804Z,9.35
2023-04-28T13:49:53.744Z,5.93
2023-04-28T13:52:22.565Z,5.97
2023-04-28T13:54:49.802Z,4.70
2023-04-28T13:57:25.348Z,4.68
2023-04-28T13:59:52.213Z,2.78
2023-04-28T14:02:20.415Z,4.28
2023-04-28T14:04:49.352Z,3.50
2023-04-28T14:10:58.277Z,4.72
2023-04-28T14:16:48.769Z,4.18
2023-04-28T14:19:18.703Z,6.15
2023-04-28T14:21:50.378Z,2.42
2023-04-28T14:25:37.716Z,3.70
2023-04-28T14:28:11.281Z,3.95
2023-04-28T14:32:23.142Z,2.03
2023-04-28T14:34:51.917Z,5.38
2023-04-28T14:37:18.814Z,4.40
2023-04-28T14:56:27.084Z,3.00
2023-04-28T15:00:54.240Z,3.03
2023-04-28T15:03:22.285Z,3.92
2023-04-28T15:10:58.313Z,3.36
2023-04-28T15:18:51.716Z,5.65
2023-04-28T15:27:01.238Z,4.77
2023-04-28T15:29:28.486Z,4.45
2023-04-28T15:31:57.898Z,4.30
2023-04-28T15:34:25.083Z,4.80
2023-04-28T15:36:53.907Z,5.72
2023-04-28T15:39:21.888Z,5.22
2023-04-28T15:41:48.765Z,5.38
2023-04-28T15:54:11.651Z,3.95
2023-04-28T16:01:43.167Z,4.70
2023-04-28T16:04:34.408Z,5.55
2023-04-28T16:14:42.393Z,5.15
2023-04-28T16:46:39.683Z,4.53
2023-04-28T16:49:06.819Z,5.10
2023-04-28T16:54:30.462Z,6.30
2023-04-28T16:56:57.822Z,5.00
2023-04-28T16:59:28.970Z,5.60
2023-04-28T17:02:00.729Z,5.10
2023-04-28T17:11:29.533Z,4.10
2023-04-28T17:14:38.892Z,5.32
2023-04-28T17:17:06.008Z,5.00
2023-04-28T17:26:11.800Z,6.21
2023-04-28T17:31:08.706Z,6.50
2023-04-28T17:33:42.471Z,8.32
2023-04-28T17:36:19.108Z,5.60
2023-04-28T17:43:27.273Z,5.35
2023-04-28T17:46:15.975Z,6.00
2023-04-28T17:48:43.288Z,6.87
2023-04-28T17:51:10.192Z,7.20
2023-04-28T17:53:41.182Z,7.22
2023-04-28T17:59:42.624Z,7.78
2023-04-28T18:10:54.408Z,10.03
2023-04-28T18:13:21.349Z,13.07
2023-04-28T18:15:48.304Z,12.90
2023-04-28T18:18:15.201Z,15.00
2023-04-28T18:20:42.932Z,14.93
2023-04-28T18:23:12.308Z,15.80
2023-04-28T18:25:49.042Z,14.60
2023-04-28T18:28:15.914Z,15.03
2023-04-28T18:30:42.773Z,14.33
2023-04-28T18:33:09.767Z,13.00
2023-04-28T18:35:37.067Z,12.70
2023-04-28T18:38:05.151Z,13.87
2023-04-28T18:40:37.720Z,14.97
2023-04-28T18:43:07.191Z,14.63
2023-04-28T18:45:35.778Z,14.47
2023-04-28T18:48:03.205Z,15.20
2023-04-28T18:50:30.720Z,14.67
2023-04-28T18:52:59.535Z,14.30
2023-04-28T18:55:27.486Z,13.40
2023-04-28T18:57:56.459Z,14.93
2023-04-28T19:00:49.845Z,14.05
2023-04-28T19:16:05.448Z,14.05
2023-04-28T19:18:42.196Z,17.41
2023-04-28T19:21:12.154Z,15.10
2023-04-28T19:25:15.226Z,16.65
2023-04-28T19:35:04.958Z,18.52
2023-04-28T19:37:32.388Z,21.33
2023-04-28T19:45:45.084Z,20.70
2023-04-28T19:53:01.132Z,22.10
2023-04-28T19:58:10.624Z,22.70
2023-04-28T20:06:33.626Z,21.90
2023-04-28T20:09:01.443Z,23.13
2023-04-28T20:11:29.740Z,22.87
2023-04-28T20:16:28.659Z,21.73
2023-04-28T20:20:53.177Z,21.60
2023-04-28T20:31:12.811Z,29.24
2023-04-28T20:41:54.744Z,25.55
2023-04-28T20:45:01.340Z,35.00
2023-04-28T20:48:55.726Z,24.77
2023-04-28T20:51:22.659Z,34.33
2023-04-28T20:53:49.507Z,34.53
2023-04-28T20:57:13.208Z,26.90
2023-04-28T21:00:11.401Z,34.10
2023-04-28T21:06:56.092Z,28.13
2023-04-28T21:30:22.032Z,24.88
2023-04-28T21:32:48.941Z,27.83
2023-04-28T21:35:16.402Z,27.73
2023-04-28T21:37:43.301Z,27.70
2023-04-28T21:40:10.496Z,26.67
2023-04-28T21:42:38.060Z,24.00
2023-04-28T21:45:28.812Z,23.65
2023-04-28T21:47:57.127Z,23.73
2023-04-28T21:50:24.067Z,23.63
2023-04-28T21:52:50.977Z,19.57
2023-04-28T21:55:17.988Z,19.17
2023-04-28T21:57:45.840Z,18.03
2023-04-28T22:00:13.103Z,16.33
2023-04-28T22:02:40.097Z,18.47
2023-04-28T22:05:07.281Z,19.53
2023-04-28T22:07:34.228Z,18.70
2023-04-28T22:10:01.231Z,17.37
2023-04-28T22:12:28.390Z,17.23
2023-04-28T22:14:55.290Z,17.27
2023-04-28T22:17:22.373Z,17.10
2023-04-28T22:22:43.149Z,18.33
2023-04-28T22:25:10.357Z,19.70
2023-04-28T22:27:37.518Z,20.63
2023-04-28T22:30:04.853Z,22.03
2023-04-28T22:36:58.147Z,20.30
2023-04-28T22:39:27.003Z,20.73
2023-04-28T22:41:54.016Z,20.43
2023-04-28T22:47:07.024Z,21.40
2023-04-28T22:49:34.016Z,22.93
2023-04-28T22:52:00.994Z,25.70
2023-04-28T22:54:27.965Z,25.00
2023-04-28T22:56:55.814Z,24.70
2023-04-28T22:59:22.680Z,24.03
2023-04-28T23:01:49.954Z,24.10
2023-04-28T23:04:17.832Z,27.40
2023-04-28T23:06:44.934Z,28.80
2023-04-28T23:09:11.860Z,27.57
2023-04-28T23:11:38.889Z,28.70
2023-04-28T23:14:05.793Z,28.80
2023-04-28T23:16:32.803Z,30.43
2023-04-28T23:18:59.861Z,30.40
2023-04-28T23:21:29.774Z,29.83
2023-04-28T23:23:56.644Z,30.90
2023-04-28T23:26:24.784Z,30.13
2023-04-28T23:28:52.153Z,27.97
2023-04-28T23:31:19.037Z,30.13
2023-04-28T23:33:45.908Z,28.37
2023-04-28T23:36:13.937Z,27.87
2023-04-28T23:38:40.843Z,27.03
2023-04-28T23:41:09.104Z,25.67
2023-04-28T23:43:36.393Z,26.47
2023-04-28T23:46:03.336Z,28.77
2023-04-28T23:48:30.224Z,27.87
2023-04-28T23:50:57.152Z,28.07
2023-04-28T23:53:24.376Z,26.13
2023-04-28T23:55:52.237Z,25.33
2023-04-28T23:58:19.116Z,22.57
